sensor_id;sensor_type;location;lat;lon;timestamp;temperature;humidity
10304;DHT22;5197;48.152;8.590;2023-06-24T00:01:29;14.70;5.30
10304;DHT22;5197;48.152;8.590;2023-06-24T00:03:58;14.70;5.60
10304;DHT22;5197;48.152;8.590;2023-06-24T00:06:25;14.60;5.70
10304;DHT22;5197;48.152;8.590;2023-06-24T00:08:53;14.60;5.80
10304;DHT22;5197;48.152;8.590;2023-06-24T00:11:28;14.60;5.80
10304;DHT22;5197;48.152;8.590;2023-06-24T00:13:57;14.60;5.80
10304;DHT22;5197;48.152;8.590;2023-06-24T00:16:25;14.60;5.80
10304;DHT22;5197;48.152;8.590;2023-06-24T00:18:55;14.60;5.80
10304;DHT22;5197;48.152;8.590;2023-06-24T00:21:27;14.60;6.00
10304;DHT22;5197;48.152;8.590;2023-06-24T00:23:58;14.50;6.20
10304;DHT22;5197;48.152;8.590;2023-06-24T00:26:28;14.50;7.20
10304;DHT22;5197;48.152;8.590;2023-06-24T00:28:55;14.50;6.30
10304;DHT22;5197;48.152;8.590;2023-06-24T00:31:23;14.50;6.30
10304;DHT22;5197;48.152;8.590;2023-06-24T00:33:50;14.40;6.10
10304;DHT22;5197;48.152;8.590;2023-06-24T00:36:19;14.40;6.10
10304;DHT22;5197;48.152;8.590;2023-06-24T00:38:45;14.40;6.30
10304;DHT22;5197;48.152;8.590;2023-06-24T00:41:13;14.40;6.40
10304;DHT22;5197;48.152;8.590;2023-06-24T00:43:42;14.30;6.60
10304;DHT22;5197;48.152;8.590;2023-06-24T00:46:10;14.40;6.50
10304;DHT22;5197;48.152;8.590;2023-06-24T00:48:37;14.30;6.60
10304;DHT22;5197;48.152;8.590;2023-06-24T00:51:04;14.30;6.70
10304;DHT22;5197;48.152;8.590;2023-06-24T00:53:31;14.30;6.50
10304;DHT22;5197;48.152;8.590;2023-06-24T00:55:59;14.30;6.70
10304;DHT22;5197;48.152;8.590;2023-06-24T00:58:31;14.30;6.60
10304;DHT22;5197;48.152;8.590;2023-06-24T01:00:58;14.30;6.70
10304;DHT22;5197;48.152;8.590;2023-06-24T01:03:26;14.40;6.80
10304;DHT22;5197;48.152;8.590;2023-06-24T01:05:56;14.30;6.70
10304;DHT22;5197;48.152;8.590;2023-06-24T01:08:23;14.20;6.60
10304;DHT22;5197;48.152;8.590;2023-06-24T01:10:51;14.10;7.00
10304;DHT22;5197;48.152;8.590;2023-06-24T01:13:18;14.10;7.30
10304;DHT22;5197;48.152;8.590;2023-06-24T01:15:46;14.10;7.50
10304;DHT22;5197;48.152;8.590;2023-06-24T01:18:40;14.10;7.40
10304;DHT22;5197;48.152;8.590;2023-06-24T01:21:31;14.00;7.50
10304;DHT22;5197;48.152;8.590;2023-06-24T01:32:18;13.90;7.60
10304;DHT22;5197;48.152;8.590;2023-06-24T01:35:00;14.00;7.20
10304;DHT22;5197;48.152;8.590;2023-06-24T01:37:42;13.90;7.40
10304;DHT22;5197;48.152;8.590;2023-06-24T01:40:43;13.90;7.40
10304;DHT22;5197;48.152;8.590;2023-06-24T01:43:13;13.90;7.40
10304;DHT22;5197;48.152;8.590;2023-06-24T01:45:42;13.80;7.90
10304;DHT22;5197;48.152;8.590;2023-06-24T01:48:14;13.80;8.00
10304;DHT22;5197;48.152;8.590;2023-06-24T01:50:57;13.80;8.00
10304;DHT22;5197;48.152;8.590;2023-06-24T01:53:27;13.80;7.70
10304;DHT22;5197;48.152;8.590;2023-06-24T01:55:57;13.80;7.70
10304;DHT22;5197;48.152;8.590;2023-06-24T01:58:26;13.80;7.80
10304;DHT22;5197;48.152;8.590;2023-06-24T02:00:54;13.70;8.10
10304;DHT22;5197;48.152;8.590;2023-06-24T02:03:22;13.70;8.10
10304;DHT22;5197;48.152;8.590;2023-06-24T02:05:52;13.70;8.20
10304;DHT22;5197;48.152;8.590;2023-06-24T02:08:21;13.70;8.20
10304;DHT22;5197;48.152;8.590;2023-06-24T02:10:50;13.70;8.30
10304;DHT22;5197;48.152;8.590;2023-06-24T02:13:18;13.60;8.40
10304;DHT22;5197;48.152;8.590;2023-06-24T02:15:45;13.60;8.50
10304;DHT22;5197;48.152;8.590;2023-06-24T02:18:15;13.50;8.50
10304;DHT22;5197;48.152;8.590;2023-06-24T02:20:44;14.30;9.10
10304;DHT22;5197;48.152;8.590;2023-06-24T02:23:12;13.50;8.70
10304;DHT22;5197;48.152;8.590;2023-06-24T02:25:40;13.50;8.80
10304;DHT22;5197;48.152;8.590;2023-06-24T02:28:08;13.40;8.80
10304;DHT22;5197;48.152;8.590;2023-06-24T02:30:37;13.40;9.00
10304;DHT22;5197;48.152;8.590;2023-06-24T02:33:04;13.40;9.30
10304;DHT22;5197;48.152;8.590;2023-06-24T02:35:31;13.40;9.40
10304;DHT22;5197;48.152;8.590;2023-06-24T02:37:59;13.30;9.40
10304;DHT22;5197;48.152;8.590;2023-06-24T02:40:26;13.30;9.40
10304;DHT22;5197;48.152;8.590;2023-06-24T02:42:54;13.30;9.60
10304;DHT22;5197;48.152;8.590;2023-06-24T02:45:21;13.30;9.80
10304;DHT22;5197;48.152;8.590;2023-06-24T02:47:49;13.20;9.60
10304;DHT22;5197;48.152;8.590;2023-06-24T02:50:17;13.10;9.70
10304;DHT22;5197;48.152;8.590;2023-06-24T02:52:45;13.10;10.10
10304;DHT22;5197;48.152;8.590;2023-06-24T02:55:13;13.00;10.00
10304;DHT22;5197;48.152;8.590;2023-06-24T02:57:41;13.00;10.20
10304;DHT22;5197;48.152;8.590;2023-06-24T03:00:09;13.00;10.40
10304;DHT22;5197;48.152;8.590;2023-06-24T03:02:39;12.90;10.50
10304;DHT22;5197;48.152;8.590;2023-06-24T03:05:06;12.80;10.80
10304;DHT22;5197;48.152;8.590;2023-06-24T03:07:34;12.80;10.90
10304;DHT22;5197;48.152;8.590;2023-06-24T03:10:03;12.70;11.10
10304;DHT22;5197;48.152;8.590;2023-06-24T03:12:32;12.70;11.50
10304;DHT22;5197;48.152;8.590;2023-06-24T03:14:59;12.70;11.80
10304;DHT22;5197;48.152;8.590;2023-06-24T03:17:28;12.60;12.00
10304;DHT22;5197;48.152;8.590;2023-06-24T03:19:55;12.60;12.20
10304;DHT22;5197;48.152;8.590;2023-06-24T03:22:23;12.60;12.40
10304;DHT22;5197;48.152;8.590;2023-06-24T03:24:50;12.60;12.50
10304;DHT22;5197;48.152;8.590;2023-06-24T03:27:19;12.60;12.60
10304;DHT22;5197;48.152;8.590;2023-06-24T03:29:46;12.50;12.70
10304;DHT22;5197;48.152;8.590;2023-06-24T03:32:13;12.60;12.90
10304;DHT22;5197;48.152;8.590;2023-06-24T03:34:41;12.50;12.90
10304;DHT22;5197;48.152;8.590;2023-06-24T03:37:08;12.50;13.10
10304;DHT22;5197;48.152;8.590;2023-06-24T03:39:35;12.60;13.30
10304;DHT22;5197;48.152;8.590;2023-06-24T03:42:02;12.50;13.20
10304;DHT22;5197;48.152;8.590;2023-06-24T03:44:29;12.50;13.30
10304;DHT22;5197;48.152;8.590;2023-06-24T03:46:56;12.50;13.40
10304;DHT22;5197;48.152;8.590;2023-06-24T03:49:23;12.50;13.40
10304;DHT22;5197;48.152;8.590;2023-06-24T03:51:49;12.60;13.50
10304;DHT22;5197;48.152;8.590;2023-06-24T03:54:16;12.50;13.60
10304;DHT22;5197;48.152;8.590;2023-06-24T03:56:44;12.60;13.90
10304;DHT22;5197;48.152;8.590;2023-06-24T03:59:11;12.60;14.00
10304;DHT22;5197;48.152;8.590;2023-06-24T04:01:39;12.60;14.10
10304;DHT22;5197;48.152;8.590;2023-06-24T04:04:06;12.60;14.20
10304;DHT22;5197;48.152;8.590;2023-06-24T04:06:33;12.60;14.30
10304;DHT22;5197;48.152;8.590;2023-06-24T04:09:00;12.70;14.50
10304;DHT22;5197;48.152;8.590;2023-06-24T04:11:29;12.70;14.50
10304;DHT22;5197;48.152;8.590;2023-06-24T04:13:56;12.70;14.60
10304;DHT22;5197;48.152;8.590;2023-06-24T04:16:23;12.80;14.70
10304;DHT22;5197;48.152;8.590;2023-06-24T04:18:50;12.80;14.60
10304;DHT22;5197;48.152;8.590;2023-06-24T04:21:17;12.80;14.80
10304;DHT22;5197;48.152;8.590;2023-06-24T04:23:45;12.90;15.00
10304;DHT22;5197;48.152;8.590;2023-06-24T04:26:12;12.90;15.10
10304;DHT22;5197;48.152;8.590;2023-06-24T04:28:39;12.90;15.30
10304;DHT22;5197;48.152;8.590;2023-06-24T04:31:07;13.00;15.40
10304;DHT22;5197;48.152;8.590;2023-06-24T04:33:34;13.00;15.40
10304;DHT22;5197;48.152;8.590;2023-06-24T04:36:01;13.10;15.20
10304;DHT22;5197;48.152;8.590;2023-06-24T04:38:28;13.10;15.30
10304;DHT22;5197;48.152;8.590;2023-06-24T04:40:55;13.10;15.30
10304;DHT22;5197;48.152;8.590;2023-06-24T04:43:24;13.10;15.50
10304;DHT22;5197;48.152;8.590;2023-06-24T04:45:51;13.10;15.50
10304;DHT22;5197;48.152;8.590;2023-06-24T04:48:18;13.00;15.80
10304;DHT22;5197;48.152;8.590;2023-06-24T04:50:45;12.90;16.30
10304;DHT22;5197;48.152;8.590;2023-06-24T04:53:12;12.90;16.50
10304;DHT22;5197;48.152;8.590;2023-06-24T04:55:39;12.90;16.80
10304;DHT22;5197;48.152;8.590;2023-06-24T04:58:07;12.90;17.10
10304;DHT22;5197;48.152;8.590;2023-06-24T05:00:34;12.90;17.30
10304;DHT22;5197;48.152;8.590;2023-06-24T05:03:01;13.00;17.50
10304;DHT22;5197;48.152;8.590;2023-06-24T05:05:28;13.10;18.70
10304;DHT22;5197;48.152;8.590;2023-06-24T05:07:55;13.10;17.90
10304;DHT22;5197;48.152;8.590;2023-06-24T05:10:22;13.20;18.20
10304;DHT22;5197;48.152;8.590;2023-06-24T05:12:49;13.20;18.30
10304;DHT22;5197;48.152;8.590;2023-06-24T05:15:16;13.30;18.40
10304;DHT22;5197;48.152;8.590;2023-06-24T05:17:43;13.40;18.20
10304;DHT22;5197;48.152;8.590;2023-06-24T05:20:11;13.50;18.00
10304;DHT22;5197;48.152;8.590;2023-06-24T05:22:38;13.60;17.80
10304;DHT22;5197;48.152;8.590;2023-06-24T05:25:05;13.70;17.40
10304;DHT22;5197;48.152;8.590;2023-06-24T05:27:32;13.80;17.60
10304;DHT22;5197;48.152;8.590;2023-06-24T05:29:59;13.80;17.50
10304;DHT22;5197;48.152;8.590;2023-06-24T05:32:26;14.00;17.50
10304;DHT22;5197;48.152;8.590;2023-06-24T05:34:53;14.10;17.60
10304;DHT22;5197;48.152;8.590;2023-06-24T05:37:20;14.20;17.60
10304;DHT22;5197;48.152;8.590;2023-06-24T05:39:48;14.40;17.80
10304;DHT22;5197;48.152;8.590;2023-06-24T05:42:15;14.60;17.60
10304;DHT22;5197;48.152;8.590;2023-06-24T05:44:42;14.80;17.80
10304;DHT22;5197;48.152;8.590;2023-06-24T05:47:09;15.10;17.40
10304;DHT22;5197;48.152;8.590;2023-06-24T05:49:36;15.40;16.80
10304;DHT22;5197;48.152;8.590;2023-06-24T05:52:04;15.80;15.90
10304;DHT22;5197;48.152;8.590;2023-06-24T05:54:31;16.10;14.90
10304;DHT22;5197;48.152;8.590;2023-06-24T05:56:58;16.40;13.70
10304;DHT22;5197;48.152;8.590;2023-06-24T05:59:25;16.70;13.20
10304;DHT22;5197;48.152;8.590;2023-06-24T06:01:52;16.90;13.00
10304;DHT22;5197;48.152;8.590;2023-06-24T06:04:19;17.10;12.50
10304;DHT22;5197;48.152;8.590;2023-06-24T06:06:46;17.40;11.90
10304;DHT22;5197;48.152;8.590;2023-06-24T06:09:13;17.70;10.00
10304;DHT22;5197;48.152;8.590;2023-06-24T06:11:40;17.90;7.00
10304;DHT22;5197;48.152;8.590;2023-06-24T06:14:07;18.20;4.10
10304;DHT22;5197;48.152;8.590;2023-06-24T06:16:34;19.60;4.00
10304;DHT22;5197;48.152;8.590;2023-06-24T06:19:02;18.70;2.70
10304;DHT22;5197;48.152;8.590;2023-06-24T06:21:29;19.00;1.00
10304;DHT22;5197;48.152;8.590;2023-06-24T06:23:57;18.10;1.00
10304;DHT22;5197;48.152;8.590;2023-06-24T06:26:24;19.50;1.00
10304;DHT22;5197;48.152;8.590;2023-06-24T06:28:51;19.70;1.00
10304;DHT22;5197;48.152;8.590;2023-06-24T06:31:20;19.90;1.00
10304;DHT22;5197;48.152;8.590;2023-06-24T06:33:48;20.10;1.00
10304;DHT22;5197;48.152;8.590;2023-06-24T06:36:15;20.30;1.00
10304;DHT22;5197;48.152;8.590;2023-06-24T06:38:42;20.40;1.00
10304;DHT22;5197;48.152;8.590;2023-06-24T06:41:09;20.60;1.00
10304;DHT22;5197;48.152;8.590;2023-06-24T06:43:37;20.80;1.00
10304;DHT22;5197;48.152;8.590;2023-06-24T06:46:05;20.90;1.00
10304;DHT22;5197;48.152;8.590;2023-06-24T06:48:32;21.10;1.00
10304;DHT22;5197;48.152;8.590;2023-06-24T06:50:59;21.20;1.00
10304;DHT22;5197;48.152;8.590;2023-06-24T06:53:26;21.20;1.00
10304;DHT22;5197;48.152;8.590;2023-06-24T06:55:53;21.20;1.00
10304;DHT22;5197;48.152;8.590;2023-06-24T06:58:20;21.20;1.00
10304;DHT22;5197;48.152;8.590;2023-06-24T07:00:47;21.30;1.00
10304;DHT22;5197;48.152;8.590;2023-06-24T07:03:14;21.20;1.00
10304;DHT22;5197;48.152;8.590;2023-06-24T07:05:41;21.40;1.00
10304;DHT22;5197;48.152;8.590;2023-06-24T07:08:09;21.50;1.00
10304;DHT22;5197;48.152;8.590;2023-06-24T07:10:36;21.50;1.00
10304;DHT22;5197;48.152;8.590;2023-06-24T07:13:03;21.60;1.00
10304;DHT22;5197;48.152;8.590;2023-06-24T07:15:33;21.60;1.00
10304;DHT22;5197;48.152;8.590;2023-06-24T07:18:01;21.70;1.00
10304;DHT22;5197;48.152;8.590;2023-06-24T07:20:28;21.80;1.00
10304;DHT22;5197;48.152;8.590;2023-06-24T07:22:55;21.90;1.00
10304;DHT22;5197;48.152;8.590;2023-06-24T07:25:22;22.10;1.00
10304;DHT22;5197;48.152;8.590;2023-06-24T07:27:50;22.20;1.00
10304;DHT22;5197;48.152;8.590;2023-06-24T07:30:18;22.30;1.00
10304;DHT22;5197;48.152;8.590;2023-06-24T07:32:45;22.30;1.00
10304;DHT22;5197;48.152;8.590;2023-06-24T07:35:12;22.30;1.00
10304;DHT22;5197;48.152;8.590;2023-06-24T07:37:40;22.40;1.00
10304;DHT22;5197;48.152;8.590;2023-06-24T07:40:07;22.50;1.00
10304;DHT22;5197;48.152;8.590;2023-06-24T07:42:34;22.70;1.00
10304;DHT22;5197;48.152;8.590;2023-06-24T07:45:02;22.80;1.00
10304;DHT22;5197;48.152;8.590;2023-06-24T07:47:29;22.90;1.00
10304;DHT22;5197;48.152;8.590;2023-06-24T07:49:56;22.90;1.00
10304;DHT22;5197;48.152;8.590;2023-06-24T07:52:23;22.90;1.00
10304;DHT22;5197;48.152;8.590;2023-06-24T07:54:50;22.90;1.00
10304;DHT22;5197;48.152;8.590;2023-06-24T07:57:17;22.80;1.00
10304;DHT22;5197;48.152;8.590;2023-06-24T07:59:44;22.90;1.00
10304;DHT22;5197;48.152;8.590;2023-06-24T08:02:11;23.00;1.00
10304;DHT22;5197;48.152;8.590;2023-06-24T08:04:38;23.10;1.00
10304;DHT22;5197;48.152;8.590;2023-06-24T08:07:05;23.20;1.00
10304;DHT22;5197;48.152;8.590;2023-06-24T08:09:32;23.10;1.00
10304;DHT22;5197;48.152;8.590;2023-06-24T08:11:59;22.90;1.00
10304;DHT22;5197;48.152;8.590;2023-06-24T08:14:26;22.90;1.00
10304;DHT22;5197;48.152;8.590;2023-06-24T08:16:54;23.00;1.00
10304;DHT22;5197;48.152;8.590;2023-06-24T08:19:21;23.10;1.00
10304;DHT22;5197;48.152;8.590;2023-06-24T08:21:48;21.70;1.00
10304;DHT22;5197;48.152;8.590;2023-06-24T08:24:17;23.30;1.00
10304;DHT22;5197;48.152;8.590;2023-06-24T08:26:44;23.30;1.00
10304;DHT22;5197;48.152;8.590;2023-06-24T08:29:11;23.20;1.00
10304;DHT22;5197;48.152;8.590;2023-06-24T08:31:38;23.20;1.00
10304;DHT22;5197;48.152;8.590;2023-06-24T08:34:05;23.20;1.00
10304;DHT22;5197;48.152;8.590;2023-06-24T08:36:35;23.10;1.00
10304;DHT22;5197;48.152;8.590;2023-06-24T08:39:04;23.00;1.00
10304;DHT22;5197;48.152;8.590;2023-06-24T08:41:31;23.00;1.00
10304;DHT22;5197;48.152;8.590;2023-06-24T08:43:58;23.00;1.00
10304;DHT22;5197;48.152;8.590;2023-06-24T08:46:25;23.00;1.00
10304;DHT22;5197;48.152;8.590;2023-06-24T08:54:30;22.60;1.00
10304;DHT22;5197;48.152;8.590;2023-06-24T08:57:02;22.90;1.00
10304;DHT22;5197;48.152;8.590;2023-06-24T08:59:33;23.10;1.00
10304;DHT22;5197;48.152;8.590;2023-06-24T09:02:01;23.30;1.00
10304;DHT22;5197;48.152;8.590;2023-06-24T09:04:29;23.40;1.00
10304;DHT22;5197;48.152;8.590;2023-06-24T09:06:56;23.50;1.00
10304;DHT22;5197;48.152;8.590;2023-06-24T09:09:24;23.70;1.00
10304;DHT22;5197;48.152;8.590;2023-06-24T09:11:59;23.70;1.00
10304;DHT22;5197;48.152;8.590;2023-06-24T09:14:29;23.80;1.00
10304;DHT22;5197;48.152;8.590;2023-06-24T09:17:00;23.80;1.00
10304;DHT22;5197;48.152;8.590;2023-06-24T09:19:29;23.70;1.00
10304;DHT22;5197;48.152;8.590;2023-06-24T09:24:30;23.10;1.00
10304;DHT22;5197;48.152;8.590;2023-06-24T09:26:57;23.10;1.00
10304;DHT22;5197;48.152;8.590;2023-06-24T09:29:28;23.10;1.00
10304;DHT22;5197;48.152;8.590;2023-06-24T09:31:56;23.10;1.00
10304;DHT22;5197;48.152;8.590;2023-06-24T09:34:26;23.20;1.00
10304;DHT22;5197;48.152;8.590;2023-06-24T09:36:55;23.40;1.00
10304;DHT22;5197;48.152;8.590;2023-06-24T09:39:22;23.60;1.00
10304;DHT22;5197;48.152;8.590;2023-06-24T09:42:00;23.80;1.00
10304;DHT22;5197;48.152;8.590;2023-06-24T09:44:28;23.80;1.00
10304;DHT22;5197;48.152;8.590;2023-06-24T09:46:56;23.70;1.00
10304;DHT22;5197;48.152;8.590;2023-06-24T09:49:23;23.80;1.00
10304;DHT22;5197;48.152;8.590;2023-06-24T09:51:55;23.90;1.00
10304;DHT22;5197;48.152;8.590;2023-06-24T09:54:25;24.10;1.00
10304;DHT22;5197;48.152;8.590;2023-06-24T09:57:01;24.30;1.00
10304;DHT22;5197;48.152;8.590;2023-06-24T09:59:30;24.40;1.00
10304;DHT22;5197;48.152;8.590;2023-06-24T10:01:57;24.30;1.00
10304;DHT22;5197;48.152;8.590;2023-06-24T10:04:26;24.10;1.00
10304;DHT22;5197;48.152;8.590;2023-06-24T10:06:55;23.60;1.00
10304;DHT22;5197;48.152;8.590;2023-06-24T10:09:22;23.30;1.00
10304;DHT22;5197;48.152;8.590;2023-06-24T10:11:52;23.30;1.00
10304;DHT22;5197;48.152;8.590;2023-06-24T10:14:20;23.30;1.00
10304;DHT22;5197;48.152;8.590;2023-06-24T10:16:48;23.30;1.00
10304;DHT22;5197;48.152;8.590;2023-06-24T10:19:21;23.40;1.00
10304;DHT22;5197;48.152;8.590;2023-06-24T10:21:52;23.50;1.00
10304;DHT22;5197;48.152;8.590;2023-06-24T10:24:46;23.50;1.00
10304;DHT22;5197;48.152;8.590;2023-06-24T10:27:15;23.80;1.00
10304;DHT22;5197;48.152;8.590;2023-06-24T10:29:46;23.90;1.00
10304;DHT22;5197;48.152;8.590;2023-06-24T10:32:14;24.10;1.00
10304;DHT22;5197;48.152;8.590;2023-06-24T10:34:43;24.20;1.00
10304;DHT22;5197;48.152;8.590;2023-06-24T10:37:19;24.40;1.00
10304;DHT22;5197;48.152;8.590;2023-06-24T10:39:54;24.50;1.00
10304;DHT22;5197;48.152;8.590;2023-06-24T10:45:22;24.70;1.00
10304;DHT22;5197;48.152;8.590;2023-06-24T10:47:50;24.70;1.00
10304;DHT22;5197;48.152;8.590;2023-06-24T10:50:23;24.50;1.00
10304;DHT22;5197;48.152;8.590;2023-06-24T10:52:52;24.40;1.00
10304;DHT22;5197;48.152;8.590;2023-06-24T10:55:26;24.50;1.00
10304;DHT22;5197;48.152;8.590;2023-06-24T10:57:53;24.70;1.00
10304;DHT22;5197;48.152;8.590;2023-06-24T11:00:21;24.90;1.00
10304;DHT22;5197;48.152;8.590;2023-06-24T11:02:49;25.00;1.00
10304;DHT22;5197;48.152;8.590;2023-06-24T11:05:16;25.20;1.00
10304;DHT22;5197;48.152;8.590;2023-06-24T11:07:43;25.30;1.00
10304;DHT22;5197;48.152;8.590;2023-06-24T11:10:12;25.40;1.00
10304;DHT22;5197;48.152;8.590;2023-06-24T11:12:41;25.40;1.00
10304;DHT22;5197;48.152;8.590;2023-06-24T11:15:10;25.30;1.00
10304;DHT22;5197;48.152;8.590;2023-06-24T11:17:38;25.30;1.00
10304;DHT22;5197;48.152;8.590;2023-06-24T11:20:13;25.00;1.00
10304;DHT22;5197;48.152;8.590;2023-06-24T11:22:41;24.60;1.00
10304;DHT22;5197;48.152;8.590;2023-06-24T11:27:44;24.10;1.00
10304;DHT22;5197;48.152;8.590;2023-06-24T11:30:12;24.20;1.00
10304;DHT22;5197;48.152;8.590;2023-06-24T11:32:44;24.10;1.00
10304;DHT22;5197;48.152;8.590;2023-06-24T11:35:12;24.00;1.00
10304;DHT22;5197;48.152;8.590;2023-06-24T11:37:43;23.80;1.00
10304;DHT22;5197;48.152;8.590;2023-06-24T11:40:10;23.70;1.00
10304;DHT22;5197;48.152;8.590;2023-06-24T11:42:39;23.50;1.00
10304;DHT22;5197;48.152;8.590;2023-06-24T11:45:09;23.60;1.00
10304;DHT22;5197;48.152;8.590;2023-06-24T11:47:41;23.80;1.00
10304;DHT22;5197;48.152;8.590;2023-06-24T11:50:09;24.40;1.00
10304;DHT22;5197;48.152;8.590;2023-06-24T11:52:48;24.70;1.00
10304;DHT22;5197;48.152;8.590;2023-06-24T11:55:21;24.90;1.00
10304;DHT22;5197;48.152;8.590;2023-06-24T11:58:01;25.10;1.00
10304;DHT22;5197;48.152;8.590;2023-06-24T12:00:31;25.20;1.00
10304;DHT22;5197;48.152;8.590;2023-06-24T12:03:04;25.40;1.00
10304;DHT22;5197;48.152;8.590;2023-06-24T12:05:36;25.50;1.00
10304;DHT22;5197;48.152;8.590;2023-06-24T12:08:07;25.60;1.00
10304;DHT22;5197;48.152;8.590;2023-06-24T12:10:37;25.60;1.00
10304;DHT22;5197;48.152;8.590;2023-06-24T12:13:06;25.70;1.00
10304;DHT22;5197;48.152;8.590;2023-06-24T12:15:33;25.70;1.00
10304;DHT22;5197;48.152;8.590;2023-06-24T12:18:01;25.50;1.00
10304;DHT22;5197;48.152;8.590;2023-06-24T12:20:30;25.50;1.00
10304;DHT22;5197;48.152;8.590;2023-06-24T12:23:03;25.70;1.00
10304;DHT22;5197;48.152;8.590;2023-06-24T12:25:33;25.80;1.00
10304;DHT22;5197;48.152;8.590;2023-06-24T12:28:00;25.90;1.00
10304;DHT22;5197;48.152;8.590;2023-06-24T12:30:27;26.10;1.00
10304;DHT22;5197;48.152;8.590;2023-06-24T12:32:55;26.10;1.00
10304;DHT22;5197;48.152;8.590;2023-06-24T12:35:22;26.00;1.00
10304;DHT22;5197;48.152;8.590;2023-06-24T12:37:55;26.00;1.00
10304;DHT22;5197;48.152;8.590;2023-06-24T12:40:22;25.80;1.00
10304;DHT22;5197;48.152;8.590;2023-06-24T12:42:49;25.70;1.00
10304;DHT22;5197;48.152;8.590;2023-06-24T12:45:16;26.00;1.00
10304;DHT22;5197;48.152;8.590;2023-06-24T12:47:43;26.20;1.00
10304;DHT22;5197;48.152;8.590;2023-06-24T12:50:10;26.20;1.00
10304;DHT22;5197;48.152;8.590;2023-06-24T12:52:38;26.50;1.00
10304;DHT22;5197;48.152;8.590;2023-06-24T12:55:06;26.60;1.00
10304;DHT22;5197;48.152;8.590;2023-06-24T12:57:35;26.50;1.00
10304;DHT22;5197;48.152;8.590;2023-06-24T13:00:03;26.60;1.00
10304;DHT22;5197;48.152;8.590;2023-06-24T13:02:35;26.70;1.00
10304;DHT22;5197;48.152;8.590;2023-06-24T13:05:02;26.80;1.00
10304;DHT22;5197;48.152;8.590;2023-06-24T13:07:30;26.70;1.00
10304;DHT22;5197;48.152;8.590;2023-06-24T13:09:58;26.70;1.00
10304;DHT22;5197;48.152;8.590;2023-06-24T13:12:26;26.70;1.00
10304;DHT22;5197;48.152;8.590;2023-06-24T13:14:53;26.40;1.00
10304;DHT22;5197;48.152;8.590;2023-06-24T13:17:20;26.30;1.00
10304;DHT22;5197;48.152;8.590;2023-06-24T13:19:47;26.20;1.00
10304;DHT22;5197;48.152;8.590;2023-06-24T13:22:14;26.10;1.00
10304;DHT22;5197;48.152;8.590;2023-06-24T13:24:41;26.10;1.00
10304;DHT22;5197;48.152;8.590;2023-06-24T13:27:08;26.30;1.00
10304;DHT22;5197;48.152;8.590;2023-06-24T13:29:35;26.50;1.00
10304;DHT22;5197;48.152;8.590;2023-06-24T13:32:03;26.70;1.00
10304;DHT22;5197;48.152;8.590;2023-06-24T13:34:30;26.80;1.00
10304;DHT22;5197;48.152;8.590;2023-06-24T13:36:57;27.00;1.00
10304;DHT22;5197;48.152;8.590;2023-06-24T13:39:24;27.00;1.00
10304;DHT22;5197;48.152;8.590;2023-06-24T13:41:51;26.90;1.00
10304;DHT22;5197;48.152;8.590;2023-06-24T13:44:19;27.00;1.00
10304;DHT22;5197;48.152;8.590;2023-06-24T13:46:46;27.00;1.00
10304;DHT22;5197;48.152;8.590;2023-06-24T13:49:13;26.90;1.00
10304;DHT22;5197;48.152;8.590;2023-06-24T13:51:41;26.80;1.00
10304;DHT22;5197;48.152;8.590;2023-06-24T13:54:08;26.70;1.00
10304;DHT22;5197;48.152;8.590;2023-06-24T13:56:36;26.90;1.00
10304;DHT22;5197;48.152;8.590;2023-06-24T13:59:03;26.90;1.00
10304;DHT22;5197;48.152;8.590;2023-06-24T14:01:30;26.70;1.00
10304;DHT22;5197;48.152;8.590;2023-06-24T14:03:58;26.70;1.00
10304;DHT22;5197;48.152;8.590;2023-06-24T14:06:26;26.40;1.00
10304;DHT22;5197;48.152;8.590;2023-06-24T14:08:53;26.20;1.00
10304;DHT22;5197;48.152;8.590;2023-06-24T14:11:20;26.00;1.00
10304;DHT22;5197;48.152;8.590;2023-06-24T14:13:47;26.20;1.00
10304;DHT22;5197;48.152;8.590;2023-06-24T14:16:14;26.50;1.00
10304;DHT22;5197;48.152;8.590;2023-06-24T14:18:41;26.80;1.00
10304;DHT22;5197;48.152;8.590;2023-06-24T14:21:09;27.10;1.00
10304;DHT22;5197;48.152;8.590;2023-06-24T14:23:36;27.30;1.00
10304;DHT22;5197;48.152;8.590;2023-06-24T14:26:03;27.50;1.00
10304;DHT22;5197;48.152;8.590;2023-06-24T14:28:30;27.50;1.00
10304;DHT22;5197;48.152;8.590;2023-06-24T14:30:58;27.40;1.00
10304;DHT22;5197;48.152;8.590;2023-06-24T14:33:25;27.40;1.00
10304;DHT22;5197;48.152;8.590;2023-06-24T14:35:52;27.60;1.00
10304;DHT22;5197;48.152;8.590;2023-06-24T14:38:20;27.70;1.00
10304;DHT22;5197;48.152;8.590;2023-06-24T14:40:47;27.80;1.00
10304;DHT22;5197;48.152;8.590;2023-06-24T14:43:14;27.90;1.00
10304;DHT22;5197;48.152;8.590;2023-06-24T14:45:41;28.00;1.00
10304;DHT22;5197;48.152;8.590;2023-06-24T14:48:09;27.80;1.00
10304;DHT22;5197;48.152;8.590;2023-06-24T14:50:37;27.20;1.00
10304;DHT22;5197;48.152;8.590;2023-06-24T14:53:04;26.70;1.00
10304;DHT22;5197;48.152;8.590;2023-06-24T14:55:31;26.20;1.00
10304;DHT22;5197;48.152;8.590;2023-06-24T14:57:58;26.00;1.00
10304;DHT22;5197;48.152;8.590;2023-06-24T15:00:25;25.90;1.00
10304;DHT22;5197;48.152;8.590;2023-06-24T15:02:52;26.00;1.00
10304;DHT22;5197;48.152;8.590;2023-06-24T15:05:19;26.00;1.00
10304;DHT22;5197;48.152;8.590;2023-06-24T15:07:46;26.10;1.00
10304;DHT22;5197;48.152;8.590;2023-06-24T15:10:13;26.20;1.00
10304;DHT22;5197;48.152;8.590;2023-06-24T15:12:40;26.50;1.00
10304;DHT22;5197;48.152;8.590;2023-06-24T15:15:08;26.50;1.00
10304;DHT22;5197;48.152;8.590;2023-06-24T15:17:35;26.60;1.00
10304;DHT22;5197;48.152;8.590;2023-06-24T15:20:08;26.60;1.00
10304;DHT22;5197;48.152;8.590;2023-06-24T15:22:38;26.60;1.00
10304;DHT22;5197;48.152;8.590;2023-06-24T15:25:05;26.60;1.00
10304;DHT22;5197;48.152;8.590;2023-06-24T15:27:33;26.50;1.00
10304;DHT22;5197;48.152;8.590;2023-06-24T15:30:00;26.40;1.00
10304;DHT22;5197;48.152;8.590;2023-06-24T15:32:27;26.30;1.00
10304;DHT22;5197;48.152;8.590;2023-06-24T15:34:54;26.30;1.00
10304;DHT22;5197;48.152;8.590;2023-06-24T15:37:21;26.30;1.00
10304;DHT22;5197;48.152;8.590;2023-06-24T15:39:48;26.70;1.00
10304;DHT22;5197;48.152;8.590;2023-06-24T15:42:15;27.00;1.00
10304;DHT22;5197;48.152;8.590;2023-06-24T15:44:42;27.40;1.00
10304;DHT22;5197;48.152;8.590;2023-06-24T15:47:10;27.60;1.00
10304;DHT22;5197;48.152;8.590;2023-06-24T15:49:37;27.50;1.00
10304;DHT22;5197;48.152;8.590;2023-06-24T15:52:04;27.60;1.00
10304;DHT22;5197;48.152;8.590;2023-06-24T15:54:31;27.70;1.00
10304;DHT22;5197;48.152;8.590;2023-06-24T15:56:58;27.70;1.00
10304;DHT22;5197;48.152;8.590;2023-06-24T15:59:25;27.70;1.00
10304;DHT22;5197;48.152;8.590;2023-06-24T16:01:52;27.40;1.00
10304;DHT22;5197;48.152;8.590;2023-06-24T16:04:19;27.10;1.00
10304;DHT22;5197;48.152;8.590;2023-06-24T16:06:46;26.90;1.00
10304;DHT22;5197;48.152;8.590;2023-06-24T16:09:13;27.00;1.00
10304;DHT22;5197;48.152;8.590;2023-06-24T16:11:40;27.00;1.00
10304;DHT22;5197;48.152;8.590;2023-06-24T16:14:07;27.10;1.00
10304;DHT22;5197;48.152;8.590;2023-06-24T16:16:34;27.30;1.00
10304;DHT22;5197;48.152;8.590;2023-06-24T16:19:01;27.10;1.00
10304;DHT22;5197;48.152;8.590;2023-06-24T16:21:29;26.90;1.00
10304;DHT22;5197;48.152;8.590;2023-06-24T16:23:56;26.80;1.00
10304;DHT22;5197;48.152;8.590;2023-06-24T16:26:23;26.70;1.00